Terminal Aerodrome Forecast
Issued by NWS

Home | Current Version | Previous Version | Graphics & Text | Print | Product List | Glossary On
Versions: 1 2 3 4 5 6 7 8 9 10 11 12 13
000
FTUS43 KGLD 250520
TAFMCK
TAF
KMCK 250520Z 2506/2606 34005KT P6SM SKC
     FM250900 31008KT P6SM SKC WS020/33040KT
     FM251000 32009KT P6SM SKC
     FM251500 32013G20KT P6SM SKC
     FM252300 35012KT P6SM SKC=

USA.gov is the U.S. government's official web portal to all federal, state and local government web resources and services.